Time;durP1;ratioP1;P1;durP2;ratioP2;P2;SDS_P1;SDS_P2;PMS_P1;PMS_P2;Temp;Humidity;BMP_temperature;BMP_pressure;BME280_temperature;BME280_humidity;BME280_pressure;Samples;Min_cycle;Max_cycle;Signal;HPM_P1;HPM_P2
2023/12/29 00:01:56;;;;;;;4.18;2.08;;;10.20;99.90;;;;;;5074960;28;20235;-87
2023/12/29 00:04:23;;;;;;;1.90;1.80;;;10.20;99.90;;;;;;5074325;28;20220;-87
2023/12/29 00:06:50;;;;;;;2.35;1.73;;;10.20;99.90;;;;;;5074328;28;20216;-87
2023/12/29 00:09:19;;;;;;;3.05;2.08;;;10.30;99.90;;;;;;5072988;28;20231;-86
2023/12/29 00:11:47;;;;;;;1.60;1.50;;;10.20;99.90;;;;;;5064455;28;20223;-79
2023/12/29 00:14:14;;;;;;;2.17;1.80;;;10.20;99.90;;;;;;5072965;28;20227;-79
2023/12/29 00:16:40;;;;;;;2.22;1.80;;;10.30;99.90;;;;;;5073868;28;20224;-78
2023/12/29 00:19:09;;;;;;;2.70;1.80;;;10.30;99.90;;;;;;5073532;28;20224;-85
2023/12/29 00:21:37;;;;;;;2.95;1.50;;;10.30;99.90;;;;;;5074128;28;20223;-86
2023/12/29 00:24:05;;;;;;;1.48;1.38;;;10.30;99.90;;;;;;5073952;28;20224;-86
2023/12/29 00:26:35;;;;;;;2.05;1.85;;;10.30;99.90;;;;;;5073232;28;20224;-86
2023/12/29 00:29:06;;;;;;;1.55;1.45;;;10.30;99.90;;;;;;5073790;28;20220;-86
2023/12/29 00:31:33;;;;;;;1.80;1.40;;;10.30;99.90;;;;;;5073990;28;20219;-79
2023/12/29 00:34:00;;;;;;;4.60;1.85;;;10.30;99.90;;;;;;5072866;28;20227;-78
2023/12/29 00:36:29;;;;;;;4.10;1.92;;;10.30;99.90;;;;;;5072824;28;20216;-79
2023/12/29 00:38:56;;;;;;;2.22;2.13;;;10.40;99.90;;;;;;5073638;28;20215;-78
2023/12/29 00:41:23;;;;;;;2.85;2.55;;;10.40;99.90;;;;;;5073183;28;20239;-86
2023/12/29 00:43:50;;;;;;;2.65;2.28;;;10.40;99.90;;;;;;5073857;28;20223;-78
2023/12/29 00:46:26;;;;;;;3.92;1.83;;;10.40;99.90;;;;;;5072771;28;20226;-78
2023/12/29 00:48:53;;;;;;;2.78;1.48;;;10.30;99.90;;;;;;5074146;28;20223;-85
2023/12/29 00:51:20;;;;;;;2.17;2.03;;;10.40;99.90;;;;;;5075510;28;20220;-85
2023/12/29 00:53:49;;;;;;;2.95;1.70;;;10.40;99.90;;;;;;5076634;28;20227;-85
2023/12/29 00:56:16;;;;;;;3.83;1.67;;;10.40;99.90;;;;;;5077683;28;20224;-85
2023/12/29 00:58:43;;;;;;;2.33;1.48;;;10.30;99.90;;;;;;5073747;28;20558;-78
2023/12/29 01:01:11;;;;;;;1.85;1.63;;;10.40;99.90;;;;;;5073591;28;20239;-79
2023/12/29 01:03:38;;;;;;;1.80;1.35;;;10.40;99.90;;;;;;5072299;28;20234;-78
2023/12/29 01:06:05;;;;;;;2.50;1.50;;;10.40;99.90;;;;;;5075762;28;20678;-78
2023/12/29 01:08:33;;;;;;;1.75;1.60;;;10.40;99.90;;;;;;5072639;28;20297;-78
2023/12/29 01:11:01;;;;;;;2.05;1.55;;;10.40;99.90;;;;;;5075480;28;20231;-78
2023/12/29 01:13:28;;;;;;;2.08;1.73;;;10.40;99.90;;;;;;5072369;28;20247;-78
2023/12/29 01:15:55;;;;;;;1.85;1.75;;;10.50;99.90;;;;;;5073426;28;20220;-85
2023/12/29 01:18:23;;;;;;;1.45;1.35;;;10.50;99.90;;;;;;5072524;28;20223;-78
2023/12/29 01:20:53;;;;;;;2.38;1.90;;;10.50;99.90;;;;;;5073777;28;20220;-78
2023/12/29 01:23:20;;;;;;;1.83;1.67;;;10.50;99.90;;;;;;5076517;28;20231;-78
2023/12/29 01:25:47;;;;;;;8.30;5.20;;;10.50;99.90;;;;;;5077069;28;20353;-86
2023/12/29 01:28:15;;;;;;;7.35;5.68;;;10.50;99.90;;;;;;5076512;28;20231;-78
2023/12/29 01:30:42;;;;;;;4.03;3.67;;;10.40;99.90;;;;;;5076880;28;20223;-86
2023/12/29 01:33:09;;;;;;;5.90;5.30;;;10.40;99.90;;;;;;5076569;28;20220;-86
2023/12/29 01:35:38;;;;;;;6.15;2.55;;;10.40;99.90;;;;;;5076483;28;20235;-79
2023/12/29 01:38:05;;;;;;;3.50;1.55;;;10.40;99.90;;;;;;5076683;28;20397;-78
2023/12/29 01:40:33;;;;;;;3.50;1.95;;;10.40;99.90;;;;;;5067935;28;20230;-86
2023/12/29 01:43:00;;;;;;;1.50;1.40;;;10.40;99.90;;;;;;5090787;28;20235;-86
2023/12/29 01:45:28;;;;;;;1.73;1.63;;;10.40;99.90;;;;;;5076633;28;20235;-86
2023/12/29 01:47:55;;;;;;;2.45;1.77;;;10.40;99.90;;;;;;5077407;28;20235;-86
2023/12/29 01:50:23;;;;;;;2.58;1.75;;;10.40;99.90;;;;;;5076878;28;20228;-84
2023/12/29 01:52:51;;;;;;;1.80;1.70;;;10.40;99.90;;;;;;5076463;28;20223;-78
2023/12/29 01:55:21;;;;;;;2.90;1.85;;;10.40;99.90;;;;;;5075966;28;20224;-78
2023/12/29 01:57:49;;;;;;;1.90;1.33;;;10.40;99.90;;;;;;5076395;28;20311;-86
2023/12/29 02:00:18;;;;;;;2.97;1.40;;;10.40;99.90;;;;;;5076976;28;20224;-86
2023/12/29 02:02:48;;;;;;;1.80;1.70;;;10.40;99.90;;;;;;5075769;28;20239;-79
2023/12/29 02:05:16;;;;;;;3.92;1.80;;;10.40;99.90;;;;;;5076499;28;20220;-86
2023/12/29 02:07:43;;;;;;;3.78;2.20;;;10.40;99.90;;;;;;5076465;28;20256;-86
2023/12/29 02:10:13;;;;;;;1.50;1.40;;;10.50;99.90;;;;;;5076198;28;20219;-86
2023/12/29 02:12:40;;;;;;;2.38;2.17;;;10.40;99.90;;;;;;5075626;28;20692;-86
2023/12/29 02:15:08;;;;;;;4.65;1.85;;;10.40;99.90;;;;;;5076134;28;20307;-86
2023/12/29 02:17:41;;;;;;;3.67;1.58;;;10.40;99.90;;;;;;5075810;28;20227;-86
2023/12/29 02:20:11;;;;;;;1.95;1.77;;;10.30;99.90;;;;;;5076298;28;20231;-79
2023/12/29 02:22:38;;;;;;;1.75;1.55;;;10.30;99.90;;;;;;5075711;28;20619;-79
2023/12/29 02:25:07;;;;;;;2.15;1.42;;;10.30;99.90;;;;;;5075760;28;20234;-86
2023/12/29 02:27:51;;;;;;;3.13;1.60;;;10.30;99.90;;;;;;5075508;28;20235;-86
2023/12/29 02:30:27;;;;;;;2.47;1.95;;;10.20;99.90;;;;;;5075924;28;20614;-86
2023/12/29 02:33:00;;;;;;;2.10;1.90;;;10.20;99.90;;;;;;5075210;28;20216;-79
2023/12/29 02:35:30;;;;;;;1.98;1.38;;;10.20;99.90;;;;;;5075822;28;20232;-79
2023/12/29 02:38:01;;;;;;;2.03;1.83;;;10.20;99.90;;;;;;5075023;28;20224;-79
2023/12/29 02:40:29;;;;;;;2.63;2.42;;;10.20;99.90;;;;;;5075443;28;20243;-79
2023/12/29 02:42:57;;;;;;;4.88;3.10;;;10.20;99.90;;;;;;5075316;28;20569;-86
2023/12/29 02:45:24;;;;;;;4.43;2.70;;;10.20;99.90;;;;;;5074511;28;20252;-79
2023/12/29 02:47:51;;;;;;;2.95;2.10;;;10.20;99.90;;;;;;5074316;28;20232;-79
2023/12/29 02:50:18;;;;;;;3.92;1.70;;;10.30;99.90;;;;;;5075479;28;20603;-79
2023/12/29 02:52:45;;;;;;;2.40;1.83;;;10.30;99.90;;;;;;5074851;28;20762;-79
2023/12/29 02:55:12;;;;;;;1.75;1.65;;;10.30;99.90;;;;;;5075398;28;20565;-79
2023/12/29 02:57:41;;;;;;;2.30;1.92;;;10.30;99.90;;;;;;5074877;28;20266;-79
2023/12/29 03:00:08;;;;;;;2.88;2.00;;;10.40;99.90;;;;;;5075127;28;20230;-78
2023/12/29 03:02:35;;;;;;;2.10;1.90;;;10.40;99.90;;;;;;5075420;28;20717;-84
2023/12/29 03:05:03;;;;;;;2.65;1.80;;;10.40;99.90;;;;;;5076084;28;20220;-86
2023/12/29 03:07:30;;;;;;;2.05;1.67;;;10.40;99.90;;;;;;5075991;28;20239;-86
2023/12/29 03:09:57;;;;;;;2.85;1.70;;;10.40;99.90;;;;;;5075575;28;20223;-79
2023/12/29 03:12:26;;;;;;;1.70;1.50;;;10.40;99.90;;;;;;5075484;28;20232;-79
2023/12/29 03:14:54;;;;;;;2.10;1.77;;;10.50;99.90;;;;;;5074821;28;20256;-79
2023/12/29 03:17:22;;;;;;;1.92;1.70;;;10.50;99.90;;;;;;5075167;28;20306;-86
2023/12/29 03:19:50;;;;;;;1.80;1.40;;;10.50;99.90;;;;;;5075234;28;20307;-87
2023/12/29 03:22:16;;;;;;;3.10;1.50;;;10.50;99.90;;;;;;5075306;28;20316;-86
2023/12/29 03:24:44;;;;;;;2.05;1.83;;;10.40;99.90;;;;;;5073763;28;20224;-79
2023/12/29 03:27:11;;;;;;;1.50;1.38;;;10.50;99.90;;;;;;5075009;28;20224;-79
2023/12/29 03:29:38;;;;;;;4.70;2.10;;;10.50;99.90;;;;;;5075282;28;20224;-87
2023/12/29 03:32:15;;;;;;;2.20;2.00;;;10.50;99.90;;;;;;5074372;28;20228;-86
2023/12/29 03:34:44;;;;;;;1.98;1.58;;;10.50;99.90;;;;;;5074655;28;20230;-86
2023/12/29 03:37:12;;;;;;;3.45;1.70;;;10.50;99.90;;;;;;5082842;28;20277;-86
2023/12/29 03:39:39;;;;;;;2.45;2.25;;;10.50;99.90;;;;;;5074124;28;20278;-86
2023/12/29 03:42:06;;;;;;;1.90;1.40;;;10.50;99.90;;;;;;5074760;28;20224;-86
2023/12/29 03:44:33;;;;;;;1.90;1.52;;;10.50;99.90;;;;;;5073660;28;20220;-86
2023/12/29 03:47:03;;;;;;;2.00;1.73;;;10.50;99.90;;;;;;5074121;28;20690;-79
2023/12/29 03:49:31;;;;;;;1.50;1.40;;;10.60;99.90;;;;;;5074049;28;20562;-86
2023/12/29 03:51:58;;;;;;;1.65;1.55;;;10.60;99.90;;;;;;5074675;28;20307;-86
2023/12/29 03:54:26;;;;;;;2.90;1.90;;;10.50;99.90;;;;;;5073870;28;20221;-86
2023/12/29 03:56:53;;;;;;;2.65;1.92;;;10.50;99.90;;;;;;5073873;28;20224;-79
2023/12/29 03:59:22;;;;;;;1.52;1.40;;;10.50;99.90;;;;;;5073667;28;20227;-79
2023/12/29 04:01:49;;;;;;;4.15;1.92;;;10.50;99.90;;;;;;5073925;28;20220;-79
2023/12/29 04:04:16;;;;;;;3.30;1.80;;;10.50;99.90;;;;;;5074640;28;20573;-86
2023/12/29 04:06:45;;;;;;;3.13;1.38;;;10.60;99.90;;;;;;5073652;28;20745;-87
2023/12/29 04:09:12;;;;;;;2.10;1.45;;;10.60;99.90;;;;;;5075754;28;20235;-79
2023/12/29 04:11:39;;;;;;;1.30;1.20;;;10.60;99.90;;;;;;5073263;28;20224;-86
2023/12/29 04:14:08;;;;;;;1.73;1.63;;;10.60;99.90;;;;;;5074561;28;20223;-86
2023/12/29 04:16:39;;;;;;;3.30;1.52;;;10.60;99.90;;;;;;5074023;28;20227;-86
2023/12/29 04:19:08;;;;;;;2.10;1.30;;;10.70;99.90;;;;;;5074731;28;20227;-86
2023/12/29 04:21:35;;;;;;;3.50;1.70;;;10.60;99.90;;;;;;5074738;28;20251;-86
2023/12/29 04:24:05;;;;;;;1.55;1.45;;;10.60;99.90;;;;;;5067271;28;20228;-79
2023/12/29 04:26:36;;;;;;;1.33;1.23;;;10.50;99.90;;;;;;5073742;28;20220;-86
2023/12/29 04:29:04;;;;;;;2.17;1.55;;;10.60;99.90;;;;;;5075764;28;20220;-86
2023/12/29 04:31:31;;;;;;;1.60;1.40;;;10.60;99.90;;;;;;5074510;28;20224;-79
2023/12/29 04:33:58;;;;;;;1.75;1.23;;;10.60;99.90;;;;;;5073639;28;20293;-86
2023/12/29 04:36:25;;;;;;;4.00;1.65;;;10.60;99.90;;;;;;5073563;28;20624;-86
2023/12/29 04:38:52;;;;;;;1.40;1.27;;;10.60;99.90;;;;;;5065242;28;20224;-86
2023/12/29 04:41:21;;;;;;;1.80;1.60;;;10.60;99.90;;;;;;5073198;28;20235;-79
2023/12/29 04:43:50;;;;;;;2.55;1.58;;;10.60;99.90;;;;;;5072943;28;20307;-86
2023/12/29 04:46:17;;;;;;;1.58;1.48;;;10.60;99.90;;;;;;5074252;28;20281;-79
2023/12/29 04:48:54;;;;;;;1.20;1.10;;;10.60;99.90;;;;;;5062120;28;20223;-79
2023/12/29 04:51:23;;;;;;;2.00;1.10;;;10.60;99.90;;;;;;5073415;28;20311;-86
2023/12/29 04:53:50;;;;;;;1.75;1.35;;;10.60;99.90;;;;;;5073947;28;20224;-79
2023/12/29 04:56:29;;;;;;;1.52;1.42;;;10.60;99.90;;;;;;5065150;28;20227;-85
2023/12/29 04:58:57;;;;;;;1.30;1.20;;;10.60;99.90;;;;;;5080307;28;20262;-79
2023/12/29 05:01:24;;;;;;;1.73;1.10;;;10.60;99.90;;;;;;5079153;28;20223;-79
2023/12/29 05:03:51;;;;;;;1.30;1.20;;;10.60;99.90;;;;;;5080128;28;20227;-79
2023/12/29 05:06:18;;;;;;;1.73;1.13;;;10.60;99.90;;;;;;5079778;28;20223;-80
2023/12/29 05:08:45;;;;;;;3.55;1.27;;;10.60;99.90;;;;;;5079852;28;20223;-78
2023/12/29 05:11:18;;;;;;;1.40;0.90;;;10.60;99.90;;;;;;5079966;28;20693;-79
2023/12/29 05:13:46;;;;;;;2.08;1.27;;;10.70;99.90;;;;;;5078719;28;20224;-79
2023/12/29 05:16:14;;;;;;;3.05;1.00;;;10.70;99.90;;;;;;5080336;28;20219;-86
2023/12/29 05:18:41;;;;;;;1.95;1.25;;;10.70;99.90;;;;;;5081322;28;20226;-86
2023/12/29 05:21:15;;;;;;;1.20;1.10;;;10.70;99.90;;;;;;5081409;28;20290;-79
2023/12/29 05:23:47;;;;;;;1.95;1.10;;;10.70;99.90;;;;;;5079095;28;20311;-79
2023/12/29 05:26:14;;;;;;;2.20;1.35;;;10.60;99.90;;;;;;5079592;28;20231;-79
2023/12/29 05:28:43;;;;;;;1.02;0.80;;;10.70;99.90;;;;;;5079733;28;20576;-86
2023/12/29 05:31:11;;;;;;;1.70;1.60;;;10.70;99.90;;;;;;5080024;28;20230;-79
2023/12/29 05:34:03;;;;;;;1.10;1.00;;;10.70;99.90;;;;;;5078677;28;20223;-86
2023/12/29 05:36:30;;;;;;;2.20;1.02;;;10.70;99.90;;;;;;5079652;28;20236;-84
2023/12/29 05:38:57;;;;;;;2.20;1.08;;;10.60;99.90;;;;;;5080122;28;20238;-86
2023/12/29 05:41:24;;;;;;;1.70;1.00;;;10.70;99.90;;;;;;5079378;28;20224;-85
2023/12/29 05:43:54;;;;;;;1.10;1.00;;;10.70;99.90;;;;;;5080018;28;20535;-78
2023/12/29 05:46:24;;;;;;;1.85;1.35;;;10.70;99.90;;;;;;5070806;28;20273;-77
2023/12/29 05:48:52;;;;;;;1.02;0.93;;;10.70;99.90;;;;;;5079166;28;20228;-85
2023/12/29 05:51:19;;;;;;;1.10;1.00;;;10.70;99.90;;;;;;5080081;28;20231;-85
2023/12/29 05:53:46;;;;;;;1.98;1.10;;;10.70;99.90;;;;;;5078986;28;20232;-85
2023/12/29 05:56:14;;;;;;;1.85;1.10;;;10.70;99.90;;;;;;5079452;28;20228;-85
2023/12/29 05:58:42;;;;;;;1.88;0.95;;;10.70;99.90;;;;;;5078338;28;20963;-85
2023/12/29 06:01:10;;;;;;;1.73;1.02;;;10.70;99.90;;;;;;5079821;28;20230;-85
2023/12/29 06:03:38;;;;;;;1.50;1.40;;;10.70;99.90;;;;;;5078717;28;20256;-85
2023/12/29 06:06:06;;;;;;;1.00;0.80;;;10.70;99.90;;;;;;5079437;28;20307;-85
2023/12/29 06:08:33;;;;;;;1.88;1.17;;;10.80;99.90;;;;;;5076581;28;20680;-85
2023/12/29 06:11:00;;;;;;;1.00;0.90;;;10.70;99.90;;;;;;5075978;28;20239;-86
2023/12/29 06:13:27;;;;;;;2.05;1.30;;;10.80;99.90;;;;;;5075705;28;20232;-86
2023/12/29 06:15:54;;;;;;;1.08;0.90;;;10.80;99.90;;;;;;5075838;28;20604;-86
2023/12/29 06:18:21;;;;;;;2.47;1.25;;;10.80;99.90;;;;;;5076586;28;20246;-86
2023/12/29 06:20:52;;;;;;;4.90;1.60;;;10.80;99.90;;;;;;5075757;28;20224;-86
2023/12/29 06:23:21;;;;;;;1.60;1.20;;;10.90;99.90;;;;;;5076942;28;20635;-86
2023/12/29 06:25:48;;;;;;;1.45;1.35;;;10.90;99.90;;;;;;5075221;28;20251;-79
2023/12/29 06:28:15;;;;;;;1.27;1.10;;;10.90;99.90;;;;;;5079847;28;20223;-86
2023/12/29 06:30:42;;;;;;;2.28;1.35;;;10.90;99.90;;;;;;5077233;28;20698;-86
2023/12/29 06:33:09;;;;;;;1.25;1.10;;;10.90;99.90;;;;;;5075759;28;20254;-87
2023/12/29 06:35:38;;;;;;;2.85;1.35;;;10.90;99.90;;;;;;5074687;28;20677;-80
2023/12/29 06:38:07;;;;;;;1.42;1.15;;;11.00;99.90;;;;;;5075963;28;20226;-87
2023/12/29 06:40:34;;;;;;;1.60;1.45;;;11.00;99.90;;;;;;5076059;28;20235;-80
2023/12/29 06:43:01;;;;;;;2.15;1.25;;;11.10;99.90;;;;;;5075285;28;20224;-79
2023/12/29 06:45:30;;;;;;;1.02;0.98;;;11.00;99.90;;;;;;5075576;28;20224;-79
2023/12/29 06:47:57;;;;;;;1.23;1.00;;;11.10;99.90;;;;;;5075370;28;20215;-86
2023/12/29 06:50:24;;;;;;;2.53;1.33;;;11.00;99.90;;;;;;5076766;28;20251;-86
2023/12/29 06:52:51;;;;;;;2.83;1.42;;;11.10;99.90;;;;;;5076097;28;20235;-79
2023/12/29 06:55:19;;;;;;;2.40;2.05;;;11.10;99.90;;;;;;5067647;28;20232;-86
2023/12/29 06:57:46;;;;;;;2.30;1.15;;;11.20;99.90;;;;;;5078071;28;20555;-84
2023/12/29 07:00:14;;;;;;;1.45;1.35;;;11.20;99.90;;;;;;5076726;28;20244;-78
2023/12/29 07:02:41;;;;;;;2.38;1.38;;;11.20;99.90;;;;;;5078069;28;20224;-85
2023/12/29 07:05:11;;;;;;;1.30;1.20;;;11.10;99.90;;;;;;5077954;28;20223;-81
2023/12/29 07:07:41;;;;;;;1.90;1.60;;;11.10;99.90;;;;;;5074707;28;20228;-81
2023/12/29 07:10:09;;;;;;;1.60;1.33;;;11.10;99.90;;;;;;5074800;28;20250;-80
2023/12/29 07:12:37;;;;;;;1.25;1.15;;;11.10;99.90;;;;;;5074778;28;20232;-79
2023/12/29 07:15:05;;;;;;;1.48;1.38;;;11.20;99.90;;;;;;5074519;28;20220;-79
2023/12/29 07:17:32;;;;;;;1.95;1.20;;;11.20;99.90;;;;;;5074698;28;20312;-78
2023/12/29 07:19:59;;;;;;;2.13;1.10;;;11.30;99.90;;;;;;5074347;28;20681;-79
2023/12/29 07:22:26;;;;;;;6.00;1.70;;;11.30;99.90;;;;;;5074785;28;20227;-79
2023/12/29 07:24:53;;;;;;;4.55;1.85;;;11.30;99.90;;;;;;5074103;28;20690;-78
2023/12/29 07:27:20;;;;;;;2.75;1.48;;;11.30;99.90;;;;;;5074965;28;20700;-78
2023/12/29 07:29:48;;;;;;;1.20;1.10;;;11.30;99.90;;;;;;5074869;28;20685;-78
2023/12/29 07:32:15;;;;;;;1.63;1.15;;;11.20;99.90;;;;;;5073879;28;20247;-78
2023/12/29 07:34:44;;;;;;;2.00;1.90;;;11.20;99.90;;;;;;5074325;28;20231;-78
2023/12/29 07:37:11;;;;;;;2.33;1.35;;;11.20;99.90;;;;;;5074498;28;20223;-78
2023/12/29 07:39:38;;;;;;;1.48;1.30;;;11.20;99.90;;;;;;5073046;28;20223;-79
2023/12/29 07:42:05;;;;;;;1.85;1.23;;;11.30;99.90;;;;;;5074467;28;20310;-79
2023/12/29 07:44:32;;;;;;;2.50;1.60;;;11.30;99.90;;;;;;5073882;28;20228;-79
2023/12/29 07:47:00;;;;;;;1.17;1.08;;;11.30;99.90;;;;;;5074400;28;20585;-79
2023/12/29 07:49:27;;;;;;;8.20;2.50;;;11.30;99.90;;;;;;5074114;28;20224;-78
2023/12/29 07:51:54;;;;;;;1.98;1.45;;;11.30;99.90;;;;;;5074184;28;20227;-79
2023/12/29 07:54:21;;;;;;;2.35;1.80;;;11.30;99.90;;;;;;5073566;28;20746;-79
2023/12/29 07:56:48;;;;;;;1.98;1.55;;;11.40;99.90;;;;;;5074252;28;20231;-79
2023/12/29 07:59:15;;;;;;;3.28;1.50;;;11.40;99.90;;;;;;5073175;28;20243;-80
2023/12/29 08:01:42;;;;;;;3.60;1.80;;;11.40;99.90;;;;;;5073848;28;20223;-79
2023/12/29 08:04:11;;;;;;;1.83;1.30;;;11.50;99.90;;;;;;5074110;28;20690;-78
2023/12/29 08:06:38;;;;;;;5.90;1.77;;;11.50;99.90;;;;;;5073420;28;20219;-78
2023/12/29 08:09:07;;;;;;;3.90;1.88;;;11.50;99.90;;;;;;5073676;28;20302;-78
2023/12/29 08:11:34;;;;;;;7.25;1.80;;;11.50;99.90;;;;;;5073467;28;20254;-79
2023/12/29 08:14:01;;;;;;;2.75;1.38;;;11.60;99.90;;;;;;5073183;28;20234;-78
2023/12/29 08:16:28;;;;;;;2.00;1.80;;;11.60;99.90;;;;;;5073619;28;20307;-85
2023/12/29 08:18:57;;;;;;;4.60;1.90;;;11.60;99.90;;;;;;5073988;28;20220;-87
2023/12/29 08:21:25;;;;;;;7.55;2.58;;;11.60;99.90;;;;;;5073593;28;20220;-78
2023/12/29 08:23:52;;;;;;;3.33;1.80;;;11.60;99.90;;;;;;5073379;28;20289;-86
2023/12/29 08:26:20;;;;;;;2.33;1.63;;;11.70;99.90;;;;;;5073356;28;20290;-86
2023/12/29 08:28:50;;;;;;;2.47;1.77;;;11.70;99.90;;;;;;5073703;28;20678;-86
2023/12/29 08:31:17;;;;;;;2.55;1.63;;;11.70;99.90;;;;;;5073215;28;20224;-82
2023/12/29 08:33:44;;;;;;;1.60;1.20;;;11.70;99.90;;;;;;5073937;28;20289;-86
2023/12/29 08:36:13;;;;;;;2.33;1.40;;;11.80;99.90;;;;;;5073752;28;20243;-85
2023/12/29 08:38:42;;;;;;;2.83;1.42;;;11.70;99.90;;;;;;5073027;28;20246;-78
2023/12/29 08:41:09;;;;;;;1.50;1.40;;;11.70;99.90;;;;;;5074091;28;20220;-85
2023/12/29 08:43:36;;;;;;;1.48;1.33;;;11.70;99.90;;;;;;5073124;28;20319;-86
2023/12/29 08:46:06;;;;;;;1.95;1.50;;;11.70;99.90;;;;;;5074086;28;20342;-86
2023/12/29 08:48:34;;;;;;;4.10;1.42;;;11.80;99.90;;;;;;5073143;28;20235;-77
2023/12/29 08:51:01;;;;;;;4.32;1.85;;;11.80;99.90;;;;;;5073553;28;20565;-87
2023/12/29 08:53:31;;;;;;;3.08;1.95;;;11.80;99.90;;;;;;5073769;28;20234;-83
2023/12/29 08:55:59;;;;;;;4.47;4.07;;;11.80;99.90;;;;;;5073424;28;20232;-78
2023/12/29 08:58:26;;;;;;;2.90;2.53;;;11.80;99.90;;;;;;5072836;28;20230;-78
2023/12/29 09:00:53;;;;;;;3.25;1.95;;;11.80;99.90;;;;;;5073277;28;20224;-85
2023/12/29 09:03:21;;;;;;;2.10;1.80;;;11.80;99.90;;;;;;5077925;28;20232;-85
2023/12/29 09:05:48;;;;;;;3.17;2.22;;;11.70;99.90;;;;;;5080319;28;20234;-86
2023/12/29 09:08:15;;;;;;;5.88;2.75;;;11.80;99.90;;;;;;5076947;28;20676;-86
2023/12/29 09:10:43;;;;;;;4.50;3.30;;;11.80;99.90;;;;;;5072933;28;20224;-86
2023/12/29 09:13:13;;;;;;;4.50;3.03;;;11.80;99.90;;;;;;5077213;28;20258;-86
2023/12/29 09:15:40;;;;;;;8.43;2.50;;;11.80;99.90;;;;;;5073550;28;20235;-86
2023/12/29 09:18:07;;;;;;;4.32;3.00;;;11.80;99.90;;;;;;5073622;28;20216;-86
2023/12/29 09:20:34;;;;;;;7.63;2.35;;;11.80;99.90;;;;;;5073416;28;20224;-86
2023/12/29 09:23:03;;;;;;;2.15;1.90;;;11.90;99.90;;;;;;5073622;28;20261;-86
2023/12/29 09:25:30;;;;;;;2.13;1.58;;;11.90;99.90;;;;;;5073479;28;20224;-86
2023/12/29 09:27:57;;;;;;;3.05;1.95;;;11.90;99.90;;;;;;5072819;28;20295;-79
2023/12/29 09:30:25;;;;;;;3.58;2.70;;;11.90;99.90;;;;;;5072889;28;20298;-85
2023/12/29 09:32:52;;;;;;;3.00;2.28;;;12.00;99.90;;;;;;5075202;28;20228;-86
2023/12/29 09:35:20;;;;;;;8.35;3.45;;;12.00;99.90;;;;;;5076004;28;20236;-86
2023/12/29 09:37:48;;;;;;;4.90;3.40;;;12.00;99.90;;;;;;5081869;28;20212;-85
2023/12/29 09:40:16;;;;;;;4.15;2.55;;;12.10;99.90;;;;;;5086938;28;20220;-85
2023/12/29 09:42:44;;;;;;;4.57;1.90;;;12.10;99.90;;;;;;5074965;28;20227;-79
2023/12/29 09:45:13;;;;;;;2.95;1.52;;;12.10;99.90;;;;;;5076425;28;20232;-79
2023/12/29 09:47:50;;;;;;;4.80;1.75;;;12.20;99.90;;;;;;5076005;28;20625;-78
2023/12/29 09:50:18;;;;;;;2.75;1.60;;;12.10;99.90;;;;;;5076497;28;20312;-78
2023/12/29 09:52:48;;;;;;;2.25;1.50;;;12.10;99.90;;;;;;5075934;28;20244;-78
2023/12/29 09:55:15;;;;;;;3.20;1.70;;;12.10;99.90;;;;;;5075987;28;20305;-78
2023/12/29 09:57:43;;;;;;;8.85;1.75;;;12.10;99.90;;;;;;5075839;28;20224;-78
2023/12/29 10:00:12;;;;;;;1.40;1.20;;;12.00;99.90;;;;;;5076357;28;20269;-78
2023/12/29 10:02:41;;;;;;;4.35;1.40;;;12.10;99.90;;;;;;5075769;28;20232;-78
2023/12/29 10:05:10;;;;;;;6.75;1.90;;;12.00;99.90;;;;;;5075784;28;20224;-78
2023/12/29 10:07:38;;;;;;;1.48;1.35;;;12.10;99.90;;;;;;5075329;28;20235;-79
2023/12/29 10:10:55;;;;;;;3.97;3.35;;;12.00;99.90;;;;;;5076006;28;20262;-78
2023/12/29 10:13:24;;;;;;;5.25;3.67;;;12.00;99.90;;;;;;5083481;28;20228;-78
2023/12/29 10:15:58;;;;;;;5.25;2.42;;;12.00;99.90;;;;;;5075825;28;20256;-78
2023/12/29 10:18:33;;;;;;;2.78;1.90;;;12.10;99.90;;;;;;5076418;28;20673;-78
2023/12/29 10:21:07;;;;;;;2.53;1.90;;;12.20;99.90;;;;;;5075048;28;20604;-79
2023/12/29 10:23:41;;;;;;;1.88;1.52;;;12.20;99.90;;;;;;5075695;28;20232;-77
2023/12/29 10:26:11;;;;;;;2.05;1.35;;;12.20;99.90;;;;;;5074637;28;20219;-77
2023/12/29 10:28:38;;;;;;;3.10;2.03;;;12.20;99.90;;;;;;5076033;28;20563;-78
2023/12/29 10:31:06;;;;;;;2.97;2.42;;;12.20;99.90;;;;;;5075386;28;20232;-78
2023/12/29 10:33:34;;;;;;;4.05;1.95;;;12.30;99.90;;;;;;5075676;28;20224;-78
2023/12/29 10:36:06;;;;;;;1.80;1.40;;;12.20;99.90;;;;;;5075525;28;20220;-78
2023/12/29 10:38:34;;;;;;;2.95;2.25;;;12.30;99.90;;;;;;5075471;28;20259;-78
2023/12/29 10:41:14;;;;;;;2.05;1.27;;;12.40;99.90;;;;;;5075129;28;20228;-78
2023/12/29 10:43:42;;;;;;;2.17;1.55;;;12.50;99.90;;;;;;5066763;28;20590;-78
2023/12/29 10:46:10;;;;;;;1.60;1.40;;;12.40;99.90;;;;;;5074914;28;20583;-78
2023/12/29 10:48:39;;;;;;;4.15;1.80;;;12.50;99.90;;;;;;5075373;28;20227;-79
2023/12/29 10:51:06;;;;;;;1.30;1.20;;;12.50;99.90;;;;;;5074359;28;20228;-79
2023/12/29 10:53:33;;;;;;;2.80;2.33;;;12.50;99.90;;;;;;5075303;28;20220;-79
2023/12/29 10:56:01;;;;;;;3.67;1.77;;;12.60;99.90;;;;;;5074157;28;20224;-78
2023/12/29 10:58:29;;;;;;;3.25;1.70;;;12.60;99.90;;;;;;5075450;28;20220;-79
2023/12/29 11:00:56;;;;;;;2.38;1.45;;;12.70;99.90;;;;;;5075116;28;20220;-79
2023/12/29 11:03:24;;;;;;;2.85;2.00;;;12.70;99.90;;;;;;5075127;28;20264;-78
2023/12/29 11:06:00;;;;;;;4.85;2.05;;;12.80;99.90;;;;;;5074459;28;20231;-78
2023/12/29 11:08:27;;;;;;;3.42;2.15;;;12.80;99.90;;;;;;5075233;28;20243;-77
2023/12/29 11:10:56;;;;;;;4.07;1.55;;;12.80;99.90;;;;;;5074307;28;20231;-77
2023/12/29 11:13:23;;;;;;;2.13;1.73;;;12.80;99.90;;;;;;5074817;28;20259;-77
2023/12/29 11:15:51;;;;;;;2.63;2.20;;;12.90;99.90;;;;;;5074817;28;20541;-78
2023/12/29 11:18:19;;;;;;;4.05;3.38;;;12.90;99.90;;;;;;5074876;28;20235;-80
2023/12/29 11:20:47;;;;;;;4.15;2.83;;;13.00;99.90;;;;;;5075041;28;20224;-79
2023/12/29 11:23:15;;;;;;;3.05;2.63;;;13.00;99.90;;;;;;5074268;28;20224;-78
2023/12/29 11:25:46;;;;;;;9.20;1.60;;;13.00;99.90;;;;;;5074592;28;20242;-79
2023/12/29 11:28:13;;;;;;;3.50;1.83;;;13.00;99.90;;;;;;5074288;28;20228;-79
2023/12/29 11:30:41;;;;;;;3.03;1.73;;;12.90;99.90;;;;;;5074795;28;20470;-79
2023/12/29 11:33:13;;;;;;;1.45;1.20;;;13.00;99.90;;;;;;5073911;28;20300;-79
2023/12/29 11:35:46;;;;;;;2.58;1.40;;;13.00;99.90;;;;;;5074463;28;20243;-78
2023/12/29 11:38:44;;;;;;;3.08;1.45;;;13.00;99.90;;;;;;5079636;28;20737;-78
2023/12/29 11:41:21;;;;;;;2.50;1.80;;;13.00;99.90;;;;;;5074118;28;20303;-78
2023/12/29 11:43:57;;;;;;;1.90;1.40;;;13.00;99.90;;;;;;5074325;28;20228;-78
2023/12/29 11:46:39;;;;;;;2.25;1.20;;;13.00;99.90;;;;;;5074225;28;20219;-79
2023/12/29 11:49:06;;;;;;;3.25;1.58;;;12.80;99.90;;;;;;5073806;28;20215;-79
2023/12/29 11:51:35;;;;;;;2.67;1.52;;;12.80;99.90;;;;;;5073510;28;20228;-78
2023/12/29 11:54:05;;;;;;;6.07;1.98;;;12.80;99.90;;;;;;5073838;28;20216;-86
2023/12/29 11:56:35;;;;;;;2.63;1.50;;;12.90;99.90;;;;;;5075023;28;20228;-86
2023/12/29 11:59:16;;;;;;;2.70;1.20;;;12.80;99.90;;;;;;5073992;28;20302;-85
2023/12/29 12:01:43;;;;;;;1.40;1.02;;;12.90;99.90;;;;;;5073708;28;20470;-79
2023/12/29 12:04:36;;;;;;;2.13;1.42;;;12.90;99.90;;;;;;5073292;28;20613;-78
2023/12/29 12:07:04;;;;;;;4.80;3.25;;;12.80;99.90;;;;;;5072774;28;20246;-79
2023/12/29 12:09:34;;;;;;;5.13;4.25;;;12.80;99.90;;;;;;5073898;28;20227;-79
2023/12/29 12:12:02;;;;;;;4.55;3.00;;;12.80;99.90;;;;;;5073900;28;20319;-79
2023/12/29 12:14:49;;;;;;;3.40;2.20;;;12.80;99.90;;;;;;5073433;28;20248;-79
2023/12/29 12:17:33;;;;;;;2.75;1.70;;;12.80;99.90;;;;;;5073217;28;20589;-79
2023/12/29 12:20:04;;;;;;;3.53;1.70;;;12.70;99.90;;;;;;5073701;28;20230;-80
2023/12/29 12:22:32;;;;;;;3.17;1.38;;;12.80;99.90;;;;;;5073637;28;20228;-79
2023/12/29 12:25:01;;;;;;;3.17;1.90;;;12.80;99.90;;;;;;5073305;28;20307;-77
2023/12/29 12:27:28;;;;;;;7.57;2.72;;;12.80;99.90;;;;;;5073278;28;20223;-78
2023/12/29 12:29:58;;;;;;;2.38;1.98;;;12.80;99.90;;;;;;5073742;28;20615;-78
2023/12/29 12:32:26;;;;;;;4.25;2.00;;;12.80;99.90;;;;;;5072725;28;20250;-78
2023/12/29 12:34:53;;;;;;;3.63;1.55;;;12.80;99.90;;;;;;5073453;28;20216;-78
2023/12/29 12:37:20;;;;;;;1.65;1.45;;;12.80;99.90;;;;;;5073091;28;20239;-78
2023/12/29 12:39:48;;;;;;;4.43;1.95;;;12.80;99.90;;;;;;5073342;28;20224;-78
2023/12/29 12:42:17;;;;;;;3.17;1.63;;;12.80;99.90;;;;;;5072918;28;20239;-79
2023/12/29 12:44:57;;;;;;;2.58;1.50;;;12.70;99.90;;;;;;5073634;28;20307;-79
2023/12/29 12:47:29;;;;;;;1.45;1.20;;;12.70;99.90;;;;;;5073190;28;20632;-79
2023/12/29 12:49:56;;;;;;;3.38;1.60;;;12.70;99.90;;;;;;5073410;28;20585;-78
2023/12/29 12:52:23;;;;;;;2.17;1.63;;;12.70;99.90;;;;;;5073032;28;20297;-79
2023/12/29 12:54:50;;;;;;;2.33;1.65;;;12.70;99.90;;;;;;5073354;28;20220;-79
2023/12/29 12:57:23;;;;;;;3.15;1.42;;;12.70;99.90;;;;;;5072674;28;20224;-79